Gabriella — OJHP — position and weather

sailwx.info

Track history (hours):
 
Tides and Currents Weather Stations Pressure Air Temp Water Temp Dewpoint Dewpoint Depression Visibility Wind Speed Wind Dir Waves Ship Positions

Gabriella

Last reported at 2015-Jul-30 00:32 UTC. Time now 2015-Jul-30 02:02 UTC.
Position N 59°33' E 022°07'.

Length 172 m; draft 6.5 m.

Type: Ship (hazmat cat A). MMSI: 230361000.

Date/timePositionNaut miles runAvg speedWind from/ knotsBaromVisibWave heightAir tempDewpointWater temp
2015-Jul-30 00:32N 59°33' E 022°07'1818.4
2015-Jul-29 23:33N 59°33' E 021°31'10011.1
2015-Jul-29 14:33N 59°22' E 018°16'6 5.3
2015-Jul-29 13:31N 59°19' E 018°06'0 0.0
2015-Jul-29 12:31N 59°19' E 018°06'0 0.0
2015-Jul-29 11:31N 59°19' E 018°06'0 0.0
2015-Jul-29 10:31N 59°19' E 018°06'0 0.0
2015-Jul-29 09:31N 59°19' E 018°06'0 0.0
2015-Jul-29 08:31N 59°19' E 018°06'0 0.5
2015-Jul-29 07:33N 59°19' E 018°07'4110.1
2015-Jul-29 03:28N 59°44' E 019°12'5611.3
2015-Jul-28 22:30N 59°38' E 021°02'1818.6
2015-Jul-28 21:33N 59°33' E 021°36'1818.5
2015-Jul-28 20:33N 59°34' E 022°13'1918.7
2015-Jul-28 19:33N 59°37' E 022°49'1918.7
2015-Jul-28 18:33N 59°41' E 023°25'1918.8
2015-Jul-28 17:33N 59°46' E 024°01'1918.6
2015-Jul-28 16:33N 59°54' E 024°35'1817.3
2015-Jul-28 15:32N 60°07' E 024°59'2 1.1
2015-Jul-28 13:32N 60°09' E 024°60'1717.8
2015-Jul-28 12:33N 59°52' E 024°53'2018.1
2015-Jul-28 11:26N 59°32' E 024°44'3 1.7
2015-Jul-28 09:28N 59°35' E 024°41'27 6.8
2015-Jul-28 05:26N 60°01' E 024°57'1618.5
2015-Jul-28 04:33N 59°52' E 024°30'1818.6
2015-Jul-28 03:34N 59°46' E 023°56'1918.7
2015-Jul-28 02:33N 59°42' E 023°19'2518.7
2015-Jul-28 01:12N 59°36' E 022°30'1218.7
2015-Jul-28 00:33N 59°33' E 022°07'1818.5
2015-Jul-27 23:33N 59°33' E 021°31'9911.0
2015-Jul-27 14:33N 59°22' E 018°17'6 6.5
2015-Jul-27 13:33N 59°19' E 018°06'0 0.0
2015-Jul-27 12:33N 59°19' E 018°06'0 0.0
2015-Jul-27 11:33N 59°19' E 018°06'0 0.0
2015-Jul-27 10:33N 59°19' E 018°06'0 0.0
2015-Jul-27 09:33N 59°19' E 018°06'0 0.0
2015-Jul-27 08:33N 59°19' E 018°06'1 0.7
2015-Jul-27 07:33N 59°19' E 018°07'9310.1
2015-Jul-26 22:21N 59°37' E 021°07'1618.5
2015-Jul-26 21:30N 59°33' E 021°37'5518.6
2015-Jul-26 18:33N 59°41' E 023°23'1818.3
2015-Jul-26 17:33N 59°46' E 023°58'25 4.5
2015-Jul-26 12:03N 59°43' E 024°47'918.4
2015-Jul-26 11:34N 59°34' E 024°42'7 7.3
2015-Jul-26 10:32N 59°27' E 024°46'7 7.1
2015-Jul-26 09:33N 59°34' E 024°42'19 3.9
2015-Jul-26 04:32N 59°52' E 024°30'1818.8
2015-Jul-26 03:34N 59°46' E 023°55'1918.8
2015-Jul-26 02:33N 59°42' E 023°19'3818.8
2015-Jul-26 00:32N 59°33' E 022°06'2118.5
2015-Jul-25 23:24N 59°34' E 021°24'9510.8
2015-Jul-25 14:33N 59°22' E 018°18'7 7.0
2015-Jul-25 13:33N 59°19' E 018°06'0 0.0
2015-Jul-25 12:31N 59°19' E 018°06'0 0.0
2015-Jul-25 11:31N 59°19' E 018°06'0 0.0
2015-Jul-25 10:31N 59°19' E 018°06'0 0.0
2015-Jul-25 09:31N 59°19' E 018°06'0 0.0
2015-Jul-25 08:31N 59°19' E 018°06'1 0.7
2015-Jul-25 07:33N 59°19' E 018°07'9210.1
2015-Jul-24 22:31N 59°38' E 021°04'1919.3
2015-Jul-24 21:33N 59°33' E 021°39'4219.2
2015-Jul-24 19:20N 59°38' E 023°02'1519.3
2015-Jul-24 18:33N 59°42' E 023°31'41 5.5
2015-Jul-24 11:07N 59°27' E 024°46'0 0.5
2015-Jul-24 10:33N 59°27' E 024°46'10 9.7
2015-Jul-24 09:33N 59°36' E 024°40'17 3.3
2015-Jul-24 04:29N 59°52' E 024°29'1718.4
2015-Jul-24 03:33N 59°46' E 023°57'1918.5
2015-Jul-24 02:33N 59°42' E 023°21'3718.5
2015-Jul-24 00:33N 59°34' E 022°10'1818.3
2015-Jul-23 23:33N 59°33' E 021°33'10111.2
2015-Jul-23 14:31N 59°22' E 018°16'6 6.0
2015-Jul-23 13:32N 59°19' E 018°06'0 0.0
2015-Jul-23 12:33N 59°19' E 018°06'0 0.0
2015-Jul-23 11:30N 59°19' E 018°06'0 0.0
2015-Jul-23 10:33N 59°19' E 018°06'0 0.0
2015-Jul-23 09:33N 59°19' E 018°06'0 0.0
2015-Jul-23 08:33N 59°19' E 018°06'3 2.6
2015-Jul-23 07:33N 59°20' E 018°11'88 9.7
2015-Jul-22 22:33N 59°38' E 020°60'1818.5
2015-Jul-22 21:33N 59°33' E 021°35'1818.2
2015-Jul-22 20:33N 59°33' E 022°11'3819.0
2015-Jul-22 18:33N 59°41' E 023°24'1817.9
2015-Jul-22 17:31N 59°46' E 023°59'29 4.7
2015-Jul-22 11:18N 59°29' E 024°46'2 2.6
2015-Jul-22 10:33N 59°27' E 024°46'7 7.0
2015-Jul-22 09:33N 59°33' E 024°42'26 4.4
2015-Jul-22 03:33N 59°46' E 023°56'1818.5
2015-Jul-22 02:33N 59°42' E 023°21'3918.5
2015-Jul-22 00:29N 59°33' E 022°07'1718.6
2015-Jul-21 23:33N 59°33' E 021°33'10011.0
2015-Jul-21 14:30N 59°22' E 018°17'7 6.8
2015-Jul-21 13:33N 59°19' E 018°06'0 0.0
2015-Jul-21 12:33N 59°19' E 018°06'0 0.0
2015-Jul-21 11:33N 59°19' E 018°06'0 0.0
2015-Jul-21 10:33N 59°19' E 018°06'0 0.0
2015-Jul-21 09:33N 59°19' E 018°06'0 0.0
2015-Jul-21 08:33N 59°19' E 018°06'1 0.7
2015-Jul-21 07:33N 59°19' E 018°07'66 9.5
2015-Jul-21 00:34N 59°55' E 019°57'2118.2
2015-Jul-20 23:25N 59°43' E 020°31'1818.6
2015-Jul-20 22:27N 59°37' E 021°04'1718.7
2015-Jul-20 21:33N 59°33' E 021°37'1918.7
2015-Jul-20 20:34N 59°34' E 022°13'3819.2
2015-Jul-20 18:33N 59°42' E 023°27'1818.3
2015-Jul-20 17:34N 59°47' E 024°02'25 4.1
2015-Jul-20 11:32N 59°33' E 024°43'6 6.0
2015-Jul-20 10:32N 59°27' E 024°46'7 6.8
2015-Jul-20 09:34N 59°33' E 024°42'20 3.9
2015-Jul-20 04:29N 59°52' E 024°29'1718.6
2015-Jul-20 03:33N 59°46' E 023°56'1918.6
2015-Jul-20 02:33N 59°42' E 023°21'2618.7
2015-Jul-20 01:10N 59°36' E 022°31'1218.8
2015-Jul-20 00:33N 59°33' E 022°08'  
Track history (hours):
 
Tides and Currents Weather Stations Pressure Air Temp Water Temp Dewpoint Dewpoint Depression Visibility Wind Speed Wind Dir Waves Ship Positions

Gabriella

Last reported at 2015-Jul-30 00:32 UTC. Time now 2015-Jul-30 02:02 UTC.
Position N 59°33' E 022°07'.

Length 172 m; draft 6.5 m.

Type: Ship (hazmat cat A). MMSI: 230361000.

Date/timePositionNaut miles runAvg speedWind from/ knotsBaromVisibWave heightAir tempDewpointWater temp
2015-Jul-30 00:32N 59°33' E 022°07'1818.4
2015-Jul-29 23:33N 59°33' E 021°31'10011.1
2015-Jul-29 14:33N 59°22' E 018°16'6 5.3
2015-Jul-29 13:31N 59°19' E 018°06'0 0.0
2015-Jul-29 12:31N 59°19' E 018°06'0 0.0
2015-Jul-29 11:31N 59°19' E 018°06'0 0.0
2015-Jul-29 10:31N 59°19' E 018°06'0 0.0
2015-Jul-29 09:31N 59°19' E 018°06'0 0.0
2015-Jul-29 08:31N 59°19' E 018°06'0 0.5
2015-Jul-29 07:33N 59°19' E 018°07'4110.1
2015-Jul-29 03:28N 59°44' E 019°12'5611.3
2015-Jul-28 22:30N 59°38' E 021°02'1818.6
2015-Jul-28 21:33N 59°33' E 021°36'1818.5
2015-Jul-28 20:33N 59°34' E 022°13'1918.7
2015-Jul-28 19:33N 59°37' E 022°49'1918.7
2015-Jul-28 18:33N 59°41' E 023°25'1918.8
2015-Jul-28 17:33N 59°46' E 024°01'1918.6
2015-Jul-28 16:33N 59°54' E 024°35'1817.3
2015-Jul-28 15:32N 60°07' E 024°59'2 1.1
2015-Jul-28 13:32N 60°09' E 024°60'1717.8
2015-Jul-28 12:33N 59°52' E 024°53'2018.1
2015-Jul-28 11:26N 59°32' E 024°44'3 1.7
2015-Jul-28 09:28N 59°35' E 024°41'27 6.8
2015-Jul-28 05:26N 60°01' E 024°57'1618.5
2015-Jul-28 04:33N 59°52' E 024°30'1818.6
2015-Jul-28 03:34N 59°46' E 023°56'1918.7
2015-Jul-28 02:33N 59°42' E 023°19'2518.7
2015-Jul-28 01:12N 59°36' E 022°30'1218.7
2015-Jul-28 00:33N 59°33' E 022°07'1818.5
2015-Jul-27 23:33N 59°33' E 021°31'9911.0
2015-Jul-27 14:33N 59°22' E 018°17'6 6.5
2015-Jul-27 13:33N 59°19' E 018°06'0 0.0
2015-Jul-27 12:33N 59°19' E 018°06'0 0.0
2015-Jul-27 11:33N 59°19' E 018°06'0 0.0
2015-Jul-27 10:33N 59°19' E 018°06'0 0.0
2015-Jul-27 09:33N 59°19' E 018°06'0 0.0
2015-Jul-27 08:33N 59°19' E 018°06'1 0.7
2015-Jul-27 07:33N 59°19' E 018°07'9310.1
2015-Jul-26 22:21N 59°37' E 021°07'1618.5
2015-Jul-26 21:30N 59°33' E 021°37'5518.6
2015-Jul-26 18:33N 59°41' E 023°23'1818.3
2015-Jul-26 17:33N 59°46' E 023°58'25 4.5
2015-Jul-26 12:03N 59°43' E 024°47'918.4
2015-Jul-26 11:34N 59°34' E 024°42'7 7.3
2015-Jul-26 10:32N 59°27' E 024°46'7 7.1
2015-Jul-26 09:33N 59°34' E 024°42'19 3.9
2015-Jul-26 04:32N 59°52' E 024°30'1818.8
2015-Jul-26 03:34N 59°46' E 023°55'1918.8
2015-Jul-26 02:33N 59°42' E 023°19'3818.8
2015-Jul-26 00:32N 59°33' E 022°06'2118.5
2015-Jul-25 23:24N 59°34' E 021°24'9510.8
2015-Jul-25 14:33N 59°22' E 018°18'7 7.0
2015-Jul-25 13:33N 59°19' E 018°06'0 0.0
2015-Jul-25 12:31N 59°19' E 018°06'0 0.0
2015-Jul-25 11:31N 59°19' E 018°06'0 0.0
2015-Jul-25 10:31N 59°19' E 018°06'0 0.0
2015-Jul-25 09:31N 59°19' E 018°06'0 0.0
2015-Jul-25 08:31N 59°19' E 018°06'1 0.7
2015-Jul-25 07:33N 59°19' E 018°07'9210.1
2015-Jul-24 22:31N 59°38' E 021°04'1919.3
2015-Jul-24 21:33N 59°33' E 021°39'4219.2
2015-Jul-24 19:20N 59°38' E 023°02'1519.3
2015-Jul-24 18:33N 59°42' E 023°31'41 5.5
2015-Jul-24 11:07N 59°27' E 024°46'0 0.5
2015-Jul-24 10:33N 59°27' E 024°46'10 9.7
2015-Jul-24 09:33N 59°36' E 024°40'17 3.3
2015-Jul-24 04:29N 59°52' E 024°29'1718.4
2015-Jul-24 03:33N 59°46' E 023°57'1918.5
2015-Jul-24 02:33N 59°42' E 023°21'3718.5
2015-Jul-24 00:33N 59°34' E 022°10'1818.3
2015-Jul-23 23:33N 59°33' E 021°33'10111.2
2015-Jul-23 14:31N 59°22' E 018°16'6 6.0
2015-Jul-23 13:32N 59°19' E 018°06'0 0.0
2015-Jul-23 12:33N 59°19' E 018°06'0 0.0
2015-Jul-23 11:30N 59°19' E 018°06'0 0.0
2015-Jul-23 10:33N 59°19' E 018°06'0 0.0
2015-Jul-23 09:33N 59°19' E 018°06'0 0.0
2015-Jul-23 08:33N 59°19' E 018°06'3 2.6
2015-Jul-23 07:33N 59°20' E 018°11'88 9.7
2015-Jul-22 22:33N 59°38' E 020°60'1818.5
2015-Jul-22 21:33N 59°33' E 021°35'1818.2
2015-Jul-22 20:33N 59°33' E 022°11'3819.0
2015-Jul-22 18:33N 59°41' E 023°24'1817.9
2015-Jul-22 17:31N 59°46' E 023°59'29 4.7
2015-Jul-22 11:18N 59°29' E 024°46'2 2.6
2015-Jul-22 10:33N 59°27' E 024°46'7 7.0
2015-Jul-22 09:33N 59°33' E 024°42'26 4.4
2015-Jul-22 03:33N 59°46' E 023°56'1818.5
2015-Jul-22 02:33N 59°42' E 023°21'3918.5
2015-Jul-22 00:29N 59°33' E 022°07'1718.6
2015-Jul-21 23:33N 59°33' E 021°33'10011.0
2015-Jul-21 14:30N 59°22' E 018°17'7 6.8
2015-Jul-21 13:33N 59°19' E 018°06'0 0.0
2015-Jul-21 12:33N 59°19' E 018°06'0 0.0
2015-Jul-21 11:33N 59°19' E 018°06'0 0.0
2015-Jul-21 10:33N 59°19' E 018°06'0 0.0
2015-Jul-21 09:33N 59°19' E 018°06'0 0.0
2015-Jul-21 08:33N 59°19' E 018°06'1 0.7
2015-Jul-21 07:33N 59°19' E 018°07'66 9.5
2015-Jul-21 00:34N 59°55' E 019°57'2118.2
2015-Jul-20 23:25N 59°43' E 020°31'1818.6
2015-Jul-20 22:27N 59°37' E 021°04'1718.7
2015-Jul-20 21:33N 59°33' E 021°37'1918.7
2015-Jul-20 20:34N 59°34' E 022°13'3819.2
2015-Jul-20 18:33N 59°42' E 023°27'1818.3
2015-Jul-20 17:34N 59°47' E 024°02'25 4.1
2015-Jul-20 11:32N 59°33' E 024°43'6 6.0
2015-Jul-20 10:32N 59°27' E 024°46'7 6.8
2015-Jul-20 09:34N 59°33' E 024°42'20 3.9
2015-Jul-20 04:29N 59°52' E 024°29'1718.6
2015-Jul-20 03:33N 59°46' E 023°56'1918.6
2015-Jul-20 02:33N 59°42' E 023°21'2618.7
2015-Jul-20 01:10N 59°36' E 022°31'1218.8
2015-Jul-20 00:33N 59°33' E 022°08'  

Dump ship's entire track history